Flight Track Log - Related Links

Times and Time Zones

All times are in EDT time to prevent confusion due to time zone crossing. See the SWA16 flight status page for this flight to view local times or setup timezone preferences in your user account.

Time Position Orientation Groundspeed Altitude Reporting Facility
EDT Latitude Longitude Course Direction KTS MPH feet Rate Location/Type
Tue 02:13:33 PM 35.2078 -101.8811 269° West 237 273 8,700  Level Albuquerque Center
Tue 02:14:35 PM 35.2058 -101.9953 269° West 270 311 12,400 3,387 Climbing Albuquerque Center
Tue 02:15:37 PM 35.2042 -102.0981 269° West 295 339 15,700 2,468 Climbing Albuquerque Center
Tue 02:16:39 PM 35.2025 -102.2142 269° West 332 382 17,500 2,468 Climbing Albuquerque Center
Tue 02:17:41 PM 35.2011 -102.3450 269° West 378 435 20,800 2,976 Climbing Albuquerque Center
Tue 02:18:42 PM 35.1978 -102.4772 268° West 388 447 23,600 2,537 Climbing Albuquerque Center
Tue 02:19:44 PM 35.1956 -102.6133 269° West 397 457 26,000 2,081 Climbing Albuquerque Center
Tue 02:20:46 PM 35.1928 -102.7858 269° West 420 483 27,900 1,694 Climbing Albuquerque Center
Tue 02:21:48 PM 35.1892 -102.9378 268° West 440 506 29,500 1,984 Climbing Albuquerque Center
Tue 02:22:50 PM 35.2044 -103.0992 277° West 452 520 32,000 2,226 Climbing Albuquerque Center
Tue 02:23:52 PM 35.2181 -103.2500 276° West 447 514 34,100 1,951 Climbing Albuquerque Center
Tue 02:24:53 PM 35.2297 -103.4000 275° West 441 507 36,000 927 Climbing Albuquerque Center
Tue 02:25:55 PM 35.2417 -103.5481 276° West 437 503 36,000  Level Albuquerque Center
Tue 02:26:57 PM 35.2539 -103.6958 276° West 434 499 36,000  Level Albuquerque Center
Tue 02:27:59 PM 35.2650 -103.8436 275° West 434 499 36,000  Level Albuquerque Center
Tue 02:29:00 PM 35.2783 -104.0044 276° West 432 497 36,000  Level Albuquerque Center
Tue 02:30:02 PM 35.2881 -104.1494 275° West 430 495 36,000  Level Albuquerque Center
Tue 02:31:04 PM 35.3006 -104.2947 276° West 430 495 36,000  Level Albuquerque Center
Tue 02:32:06 PM 35.3100 -104.4408 275° West 430 495 36,000  Level Albuquerque Center
Tue 02:33:08 PM 35.3203 -104.5922 275° West 430 495 36,000  Level Albuquerque Center
Tue 02:34:09 PM 35.3297 -104.7397 275° West 432 497 36,000  Level Albuquerque Center
Tue 02:35:11 PM 35.3419 -104.9128 275° West 433 498 36,000  Level Albuquerque Center
Tue 02:36:13 PM 35.3517 -105.0622 275° West 436 502 36,000  Level Albuquerque Center
Tue 02:37:15 PM 35.3614 -105.2106 275° West 434 499 36,000  Level Albuquerque Center
Tue 02:38:16 PM 35.3725 -105.3592 275° West 435 501 36,000  Level Albuquerque Center
Tue 02:39:18 PM 35.3817 -105.5064 274° West 431 496 36,000 629 Level Albuquerque Center
Tue 02:40:20 PM 35.3892 -105.6558 274° West 434 499 37,300 1,210 Climbing Albuquerque Center
Tue 02:41:22 PM 35.3983 -105.8072 274° West 439 505 38,500 1,210 Climbing Albuquerque Center
Tue 02:42:24 PM 35.4100 -105.9678 275° West 442 509 39,800 732 Climbing Albuquerque Center
Tue 02:43:25 PM 35.4194 -106.1142 275° West 436 502 40,000 98 Climbing Albuquerque Center
Tue 02:44:27 PM 35.4278 -106.2628 274° West 438 504 40,000  Level Albuquerque Center
Tue 02:45:29 PM 35.4367 -106.4086 274° West 435 501 40,000  Level Albuquerque Center
Tue 02:46:31 PM 35.4450 -106.5522 274° West 428 493 40,000  Level Albuquerque Center
Tue 02:47:32 PM 35.4536 -106.7239 274° West 425 489 40,000  Level Albuquerque Center
Tue 02:48:34 PM 35.4614 -106.8664 274° West 424 488 40,000  Level Albuquerque Center
Tue 02:49:36 PM 35.4683 -107.0083 273° West 422 486 40,000  Level Albuquerque Center
Tue 02:50:38 PM 35.4756 -107.1494 274° West 420 483 40,000  Level Albuquerque Center
Tue 02:51:39 PM 35.4836 -107.3044 274° West 414 476 40,000  Level Albuquerque Center
Tue 02:52:41 PM 35.4897 -107.4400 273° West 415 478 40,000  Level Albuquerque Center
Tue 02:53:43 PM 35.4978 -107.6000 274° West 420 483 40,000  Level Albuquerque Center
Tue 02:54:45 PM 35.5028 -107.7378 273° West 422 486 40,000  Level Albuquerque Center
Tue 02:55:46 PM 35.5103 -107.8972 273° West 419 482 40,000  Level Albuquerque Center
Tue 02:56:48 PM 35.5172 -108.0336 274° West 419 482 40,000  Level Albuquerque Center
Tue 02:57:50 PM 35.5239 -108.1919 273° West 417 480 40,000  Level Albuquerque Center
Tue 02:58:52 PM 35.5300 -108.3286 273° West 416 479 40,000  Level Albuquerque Center
Tue 02:59:53 PM 35.5333 -108.4631 272° West 413 475 40,000  Level Albuquerque Center
Tue 03:00:55 PM 35.5406 -108.6214 273° West 414 476 40,000  Level Albuquerque Center
Tue 03:01:57 PM 35.5450 -108.7578 272° West 415 478 40,000  Level Albuquerque Center
Tue 03:02:59 PM 35.5506 -108.9161 273° West 413 475 40,000  Level Albuquerque Center
Tue 03:04:01 PM 35.5561 -109.0489 273° West 408 470 40,000  Level Albuquerque Center
Tue 03:05:02 PM 35.5597 -109.1839 272° West 410 472 40,000  Level Albuquerque Center
Tue 03:06:04 PM 35.5661 -109.3428 273° West 414 476 40,000  Level Albuquerque Center
Tue 03:07:06 PM 35.5694 -109.4789 272° West 414 476 40,000  Level Albuquerque Center
Tue 03:08:08 PM 35.5722 -109.6367 271° West 413 475 40,000  Level Albuquerque Center
Tue 03:09:09 PM 35.5756 -109.7725 272° West 414 476 40,000  Level Albuquerque Center
Tue 03:10:11 PM 35.5806 -109.9267 272° West 409 471 40,000 -435 Level Albuquerque Center
Tue 03:11:13 PM 35.5825 -110.0619 271° West 410 472 39,100 -823 Descending Albuquerque Center
Tue 03:12:15 PM 35.5850 -110.2000 271° West 418 481 38,300 -537 Descending Albuquerque Center
Tue 03:13:16 PM 35.5889 -110.3614 272° West 422 486 38,000 -146 Descending Albuquerque Center
Tue 03:14:18 PM 35.5936 -110.5000 272° West 423 487 38,000 -435 Level Albuquerque Center
Tue 03:15:20 PM 35.5956 -110.6631 271° West 427 491 37,100 -871 Descending Albuquerque Center
Tue 03:16:22 PM 35.5989 -110.8017 272° West 426 490 36,200 -532 Descending Albuquerque Center
Tue 03:17:24 PM 35.6031 -110.9664 272° West 430 495 36,000 -98 Descending Albuquerque Center
Tue 03:18:25 PM 35.6053 -111.1069 271° West 431 496 36,000  Level Albuquerque Center
Tue 03:19:27 PM 35.6100 -111.2508 272° West 435 501 36,000  Level Albuquerque Center
Tue 03:20:29 PM 35.6117 -111.4125 271° West 426 490 36,000 -339 Level Albuquerque Center
Tue 03:21:31 PM 35.6131 -111.5542 271° West 427 491 35,300 -927 Descending Albuquerque Center
Tue 03:22:32 PM 35.6217 -111.6847 275° West 401 461 34,100 -1,065 Descending Albuquerque Center
Tue 03:23:35 PM 35.6292 -111.8272 274° West 412 474 33,100 -1,344 Descending Los Angeles Center
Tue 03:24:37 PM 35.6389 -112.0075 274° West 439 505 31,300 -1,645 Descending Los Angeles Center
Tue 03:25:39 PM 35.6472 -112.1517 274° West 432 497 29,700 -1,355 Descending Los Angeles Center
Tue 03:26:41 PM 35.6542 -112.2953 273° West 426 490 28,500 -823 Descending Los Angeles Center
Tue 03:27:43 PM 35.6617 -112.4350 274° West 416 479 28,000 -242 Descending Los Angeles Center
Tue 03:28:45 PM 35.6683 -112.5753 273° West 416 479 28,000  Level Los Angeles Center
Tue 03:29:47 PM 35.6764 -112.7425 273° West 416 479 28,000  Level Los Angeles Center
Tue 03:30:49 PM 35.6828 -112.8822 273° West 411 473 28,000  Level Los Angeles Center
Tue 03:31:51 PM 35.6894 -113.0228 273° West 417 480 28,000  Level Los Angeles Center
Tue 03:32:53 PM 35.6953 -113.1658 273° West 424 488 28,000  Level Los Angeles Center
Tue 03:33:55 PM 35.7031 -113.3361 273° West 422 486 28,000 -290 Level Los Angeles Center
Tue 03:34:57 PM 35.7089 -113.4786 273° West 422 486 27,400 -1,500 Descending Los Angeles Center
Tue 03:35:59 PM 35.7136 -113.6186 272° West 418 481 24,900 -2,419 Descending Los Angeles Center
Tue 03:37:01 PM 35.7200 -113.7519 273° West 399 459 22,400 -2,419 Descending Los Angeles Center
Tue 03:38:03 PM 35.7242 -113.8844 272° West 391 450 19,900 -2,758 Descending Los Angeles Center
Tue 03:39:05 PM 35.7300 -114.0394 273° West 381 438 16,700 -2,565 Descending Los Angeles Center
Tue 03:40:07 PM 35.7344 -114.1617 273° West 363 418 14,600 -2,096 Descending Los Angeles Center
Tue 03:40:28 PM 35.7383 -114.2022 277° West 364 419 13,800 -2,032 Descending Los Angeles Center
Tue 03:41:09 PM 35.7386 -114.2781 270° West 344 396 12,500 -1,600 Descending Los Angeles Center
Tue 03:41:28 PM 35.7408 -114.3183 274° West 341 392 12,200 -381 Descending Los Angeles Center
Tue 03:42:12 PM 35.7539 -114.3811 284° West 315 362 12,100 -170 Descending Los Angeles Center
Tue 03:43:14 PM 35.8303 -114.4439 326° Northwest 329 379 11,900 -435 Descending Los Angeles Center
Tue 03:44:16 PM 35.8978 -114.5225 317° Northwest 333 383 11,200 -919 Descending Los Angeles Center
Tue 03:45:18 PM 35.9767 -114.6150 317° Northwest 327 376 10,000 -1,065 Descending Los Angeles Center
Tue 03:46:20 PM 36.0381 -114.6853 317° Northwest 307 353 9,000 -968 Descending Los Angeles Center
Tue 03:47:22 PM 36.0756 -114.7594 302° West 272 313 8,000 -1,033 Descending Los Angeles Center
Tue 03:48:22 PM 36.0739 -114.8522 269° West 255 293 6,900 -1,096 Descending Los Angeles Center
Tue 03:49:17 PM 36.0753 -114.9264 271° West 225 259 5,900 -1,143 Descending Los Angeles Center
Tue 03:50:28 PM 36.0739 -114.9925 269° West 221 254 4,500 -1,388 Descending Los Angeles Center
Tue 03:51:18 PM 36.0731 -115.0547 269° West 178 205 3,100 -1,065 Descending Los Angeles Center
Tue 03:52:32 PM 36.0742 -115.1142 271° West 170 196 2,300 -649 Descending Los Angeles Center
Tue 03:54:00 PM 36.0667 -115.1500 270° West  Level FlightAware Approximate
Tue 04:01:00 PM 36.0801 -115.1523 270° West  Level Estimated

Login

Don't have an account? Register now (free) for customized features, flight alerts, and more!